sensor_id;sensor_type;location;lat;lon;timestamp;temperature;humidity
38131;DHT22;23947;51.894;4.622;2023-03-04T00:02:21;5.70;1.40
38131;DHT22;23947;51.894;4.622;2023-03-04T00:04:46;5.70;1.40
38131;DHT22;23947;51.894;4.622;2023-03-04T00:07:12;5.70;1.40
38131;DHT22;23947;51.894;4.622;2023-03-04T00:09:44;5.70;1.40
38131;DHT22;23947;51.894;4.622;2023-03-04T00:12:11;5.70;1.40
38131;DHT22;23947;51.894;4.622;2023-03-04T00:14:37;5.70;1.40
38131;DHT22;23947;51.894;4.622;2023-03-04T00:17:03;5.70;1.40
38131;DHT22;23947;51.894;4.622;2023-03-04T00:19:30;5.70;1.40
38131;DHT22;23947;51.894;4.622;2023-03-04T00:21:56;5.70;1.40
38131;DHT22;23947;51.894;4.622;2023-03-04T00:24:21;5.60;1.40
38131;DHT22;23947;51.894;4.622;2023-03-04T00:26:49;5.60;1.40
38131;DHT22;23947;51.894;4.622;2023-03-04T00:29:15;5.70;1.40
38131;DHT22;23947;51.894;4.622;2023-03-04T00:31:40;5.70;1.40
38131;DHT22;23947;51.894;4.622;2023-03-04T00:34:06;5.70;1.40
38131;DHT22;23947;51.894;4.622;2023-03-04T00:36:32;5.70;1.40
38131;DHT22;23947;51.894;4.622;2023-03-04T00:38:57;5.70;1.40
38131;DHT22;23947;51.894;4.622;2023-03-04T00:41:23;5.70;1.40
38131;DHT22;23947;51.894;4.622;2023-03-04T00:43:48;5.70;1.40
38131;DHT22;23947;51.894;4.622;2023-03-04T00:46:14;5.70;1.40
38131;DHT22;23947;51.894;4.622;2023-03-04T00:48:40;5.70;1.40
38131;DHT22;23947;51.894;4.622;2023-03-04T00:51:05;5.70;1.40
38131;DHT22;23947;51.894;4.622;2023-03-04T00:53:31;5.70;1.40
38131;DHT22;23947;51.894;4.622;2023-03-04T00:55:57;5.70;1.40
38131;DHT22;23947;51.894;4.622;2023-03-04T00:58:22;5.70;1.40
38131;DHT22;23947;51.894;4.622;2023-03-04T01:00:48;5.70;1.40
38131;DHT22;23947;51.894;4.622;2023-03-04T01:03:13;5.70;1.40
38131;DHT22;23947;51.894;4.622;2023-03-04T01:05:39;5.60;1.40
38131;DHT22;23947;51.894;4.622;2023-03-04T01:08:05;5.70;1.40
38131;DHT22;23947;51.894;4.622;2023-03-04T01:10:30;5.70;1.40
38131;DHT22;23947;51.894;4.622;2023-03-04T01:12:56;5.70;1.40
38131;DHT22;23947;51.894;4.622;2023-03-04T01:15:22;5.70;1.40
38131;DHT22;23947;51.894;4.622;2023-03-04T01:17:48;5.70;1.40
38131;DHT22;23947;51.894;4.622;2023-03-04T01:20:14;5.70;1.40
38131;DHT22;23947;51.894;4.622;2023-03-04T01:22:40;5.70;1.40
38131;DHT22;23947;51.894;4.622;2023-03-04T01:25:06;5.70;1.40
38131;DHT22;23947;51.894;4.622;2023-03-04T01:27:32;5.70;1.40
38131;DHT22;23947;51.894;4.622;2023-03-04T01:29:58;5.70;1.40
38131;DHT22;23947;51.894;4.622;2023-03-04T01:32:23;5.70;1.40
38131;DHT22;23947;51.894;4.622;2023-03-04T01:34:49;5.70;1.40
38131;DHT22;23947;51.894;4.622;2023-03-04T01:37:15;5.70;1.40
38131;DHT22;23947;51.894;4.622;2023-03-04T01:39:40;5.70;1.40
38131;DHT22;23947;51.894;4.622;2023-03-04T01:42:16;5.70;1.40
38131;DHT22;23947;51.894;4.622;2023-03-04T01:44:43;5.70;1.40
38131;DHT22;23947;51.894;4.622;2023-03-04T01:47:09;5.70;1.40
38131;DHT22;23947;51.894;4.622;2023-03-04T01:49:35;5.70;1.40
38131;DHT22;23947;51.894;4.622;2023-03-04T01:52:00;5.70;1.40
38131;DHT22;23947;51.894;4.622;2023-03-04T01:54:26;5.70;1.40
38131;DHT22;23947;51.894;4.622;2023-03-04T01:56:52;5.70;1.40
38131;DHT22;23947;51.894;4.622;2023-03-04T01:59:20;5.70;1.40
38131;DHT22;23947;51.894;4.622;2023-03-04T02:01:52;5.70;1.40
38131;DHT22;23947;51.894;4.622;2023-03-04T02:04:21;5.60;1.40
38131;DHT22;23947;51.894;4.622;2023-03-04T02:06:48;5.70;1.40
38131;DHT22;23947;51.894;4.622;2023-03-04T02:09:15;5.60;1.40
38131;DHT22;23947;51.894;4.622;2023-03-04T02:11:42;5.70;1.40
38131;DHT22;23947;51.894;4.622;2023-03-04T02:14:10;5.70;1.40
38131;DHT22;23947;51.894;4.622;2023-03-04T02:16:36;5.60;1.40
38131;DHT22;23947;51.894;4.622;2023-03-04T02:19:05;5.70;1.40
38131;DHT22;23947;51.894;4.622;2023-03-04T02:21:33;5.70;1.40
38131;DHT22;23947;51.894;4.622;2023-03-04T02:24:13;5.60;1.40
38131;DHT22;23947;51.894;4.622;2023-03-04T02:26:40;5.60;1.40
38131;DHT22;23947;51.894;4.622;2023-03-04T02:29:09;5.60;1.40
38131;DHT22;23947;51.894;4.622;2023-03-04T02:31:38;5.60;1.40
38131;DHT22;23947;51.894;4.622;2023-03-04T02:34:09;5.60;1.40
38131;DHT22;23947;51.894;4.622;2023-03-04T02:36:36;5.60;1.40
38131;DHT22;23947;51.894;4.622;2023-03-04T02:39:06;5.60;1.40
38131;DHT22;23947;51.894;4.622;2023-03-04T02:41:32;5.60;1.40
38131;DHT22;23947;51.894;4.622;2023-03-04T02:43:58;5.70;1.40
38131;DHT22;23947;51.894;4.622;2023-03-04T02:46:24;5.60;1.40
38131;DHT22;23947;51.894;4.622;2023-03-04T02:48:50;5.60;1.40
38131;DHT22;23947;51.894;4.622;2023-03-04T02:51:16;5.60;1.40
38131;DHT22;23947;51.894;4.622;2023-03-04T02:53:42;5.60;1.40
38131;DHT22;23947;51.894;4.622;2023-03-04T02:56:08;5.60;1.40
38131;DHT22;23947;51.894;4.622;2023-03-04T02:58:33;5.60;1.40
38131;DHT22;23947;51.894;4.622;2023-03-04T03:01:00;5.60;1.40
38131;DHT22;23947;51.894;4.622;2023-03-04T03:03:25;5.60;1.40
38131;DHT22;23947;51.894;4.622;2023-03-04T03:05:52;5.60;1.40
38131;DHT22;23947;51.894;4.622;2023-03-04T03:08:18;5.50;1.40
38131;DHT22;23947;51.894;4.622;2023-03-04T03:10:44;5.60;1.40
38131;DHT22;23947;51.894;4.622;2023-03-04T03:13:09;5.50;1.40
38131;DHT22;23947;51.894;4.622;2023-03-04T03:15:35;5.50;1.40
38131;DHT22;23947;51.894;4.622;2023-03-04T03:18:07;5.60;1.40
38131;DHT22;23947;51.894;4.622;2023-03-04T03:20:33;5.60;1.40
38131;DHT22;23947;51.894;4.622;2023-03-04T03:22:59;5.60;1.40
38131;DHT22;23947;51.894;4.622;2023-03-04T03:25:24;5.60;1.40
38131;DHT22;23947;51.894;4.622;2023-03-04T03:27:50;5.60;1.40
38131;DHT22;23947;51.894;4.622;2023-03-04T03:30:16;5.60;1.40
38131;DHT22;23947;51.894;4.622;2023-03-04T03:32:41;5.60;1.40
38131;DHT22;23947;51.894;4.622;2023-03-04T03:35:07;5.60;1.40
38131;DHT22;23947;51.894;4.622;2023-03-04T03:37:33;5.60;1.40
38131;DHT22;23947;51.894;4.622;2023-03-04T03:39:59;5.60;1.40
38131;DHT22;23947;51.894;4.622;2023-03-04T03:42:24;5.70;1.40
38131;DHT22;23947;51.894;4.622;2023-03-04T03:44:50;5.60;1.40
38131;DHT22;23947;51.894;4.622;2023-03-04T03:47:15;5.60;1.40
38131;DHT22;23947;51.894;4.622;2023-03-04T03:49:41;5.70;1.40
38131;DHT22;23947;51.894;4.622;2023-03-04T03:52:07;5.70;1.40
38131;DHT22;23947;51.894;4.622;2023-03-04T03:54:33;5.70;1.40
38131;DHT22;23947;51.894;4.622;2023-03-04T03:56:59;5.70;1.40
38131;DHT22;23947;51.894;4.622;2023-03-04T03:59:24;5.70;1.40
38131;DHT22;23947;51.894;4.622;2023-03-04T04:01:50;5.60;1.40
38131;DHT22;23947;51.894;4.622;2023-03-04T04:04:16;5.60;1.40
38131;DHT22;23947;51.894;4.622;2023-03-04T04:06:41;5.60;1.40
38131;DHT22;23947;51.894;4.622;2023-03-04T04:09:07;5.50;1.40
38131;DHT22;23947;51.894;4.622;2023-03-04T04:11:32;5.50;1.40
38131;DHT22;23947;51.894;4.622;2023-03-04T04:13:58;5.50;1.40
38131;DHT22;23947;51.894;4.622;2023-03-04T04:16:24;5.60;1.40
38131;DHT22;23947;51.894;4.622;2023-03-04T04:18:49;5.60;1.40
38131;DHT22;23947;51.894;4.622;2023-03-04T04:21:15;5.50;1.40
38131;DHT22;23947;51.894;4.622;2023-03-04T04:23:41;5.50;1.40
38131;DHT22;23947;51.894;4.622;2023-03-04T04:26:06;5.50;1.40
38131;DHT22;23947;51.894;4.622;2023-03-04T04:28:32;5.60;1.40
38131;DHT22;23947;51.894;4.622;2023-03-04T04:30:58;5.60;1.40
38131;DHT22;23947;51.894;4.622;2023-03-04T04:33:24;5.50;1.40
38131;DHT22;23947;51.894;4.622;2023-03-04T04:35:50;5.60;1.40
38131;DHT22;23947;51.894;4.622;2023-03-04T04:38:15;5.60;1.40
38131;DHT22;23947;51.894;4.622;2023-03-04T04:40:41;5.50;1.40
38131;DHT22;23947;51.894;4.622;2023-03-04T04:43:07;5.50;1.40
38131;DHT22;23947;51.894;4.622;2023-03-04T04:45:33;5.50;1.40
38131;DHT22;23947;51.894;4.622;2023-03-04T04:47:59;5.50;1.40
38131;DHT22;23947;51.894;4.622;2023-03-04T04:50:25;5.50;1.40
38131;DHT22;23947;51.894;4.622;2023-03-04T04:52:51;5.50;1.40
38131;DHT22;23947;51.894;4.622;2023-03-04T04:55:17;5.50;1.40
38131;DHT22;23947;51.894;4.622;2023-03-04T04:57:43;5.50;1.40
38131;DHT22;23947;51.894;4.622;2023-03-04T05:00:09;5.40;1.40
38131;DHT22;23947;51.894;4.622;2023-03-04T05:02:36;5.50;1.40
38131;DHT22;23947;51.894;4.622;2023-03-04T05:05:03;5.40;1.40
38131;DHT22;23947;51.894;4.622;2023-03-04T05:07:29;5.40;1.40
38131;DHT22;23947;51.894;4.622;2023-03-04T05:09:54;5.40;1.40
38131;DHT22;23947;51.894;4.622;2023-03-04T05:12:20;5.40;1.40
38131;DHT22;23947;51.894;4.622;2023-03-04T05:14:46;5.40;1.40
38131;DHT22;23947;51.894;4.622;2023-03-04T05:17:11;5.40;1.40
38131;DHT22;23947;51.894;4.622;2023-03-04T05:19:37;5.40;1.40
38131;DHT22;23947;51.894;4.622;2023-03-04T05:22:03;5.40;1.40
38131;DHT22;23947;51.894;4.622;2023-03-04T05:24:28;5.50;1.40
38131;DHT22;23947;51.894;4.622;2023-03-04T05:26:54;5.50;1.40
38131;DHT22;23947;51.894;4.622;2023-03-04T05:29:19;5.40;1.40
38131;DHT22;23947;51.894;4.622;2023-03-04T05:31:45;5.40;1.40
38131;DHT22;23947;51.894;4.622;2023-03-04T05:34:11;5.40;1.40
38131;DHT22;23947;51.894;4.622;2023-03-04T05:36:36;5.40;1.40
38131;DHT22;23947;51.894;4.622;2023-03-04T05:39:02;5.40;1.40
38131;DHT22;23947;51.894;4.622;2023-03-04T05:41:28;5.40;1.40
38131;DHT22;23947;51.894;4.622;2023-03-04T05:43:54;5.40;1.40
38131;DHT22;23947;51.894;4.622;2023-03-04T05:46:20;5.40;1.40
38131;DHT22;23947;51.894;4.622;2023-03-04T05:48:51;5.40;1.40
38131;DHT22;23947;51.894;4.622;2023-03-04T05:51:17;5.40;1.40
38131;DHT22;23947;51.894;4.622;2023-03-04T05:53:43;5.40;1.40
38131;DHT22;23947;51.894;4.622;2023-03-04T05:56:11;5.40;1.40
38131;DHT22;23947;51.894;4.622;2023-03-04T05:58:37;5.40;1.40
38131;DHT22;23947;51.894;4.622;2023-03-04T06:01:04;5.40;1.40
38131;DHT22;23947;51.894;4.622;2023-03-04T06:03:30;5.40;1.40
38131;DHT22;23947;51.894;4.622;2023-03-04T06:05:56;5.40;1.40
38131;DHT22;23947;51.894;4.622;2023-03-04T06:08:22;5.40;1.40
38131;DHT22;23947;51.894;4.622;2023-03-04T06:10:51;5.40;1.40
38131;DHT22;23947;51.894;4.622;2023-03-04T06:13:17;5.40;1.40
38131;DHT22;23947;51.894;4.622;2023-03-04T06:15:43;5.40;1.40
38131;DHT22;23947;51.894;4.622;2023-03-04T06:18:09;5.40;1.40
38131;DHT22;23947;51.894;4.622;2023-03-04T06:20:35;5.40;1.40
38131;DHT22;23947;51.894;4.622;2023-03-04T06:23:01;5.40;1.40
38131;DHT22;23947;51.894;4.622;2023-03-04T06:25:27;5.40;1.40
38131;DHT22;23947;51.894;4.622;2023-03-04T06:27:52;5.40;1.40
38131;DHT22;23947;51.894;4.622;2023-03-04T06:30:18;5.40;1.40
38131;DHT22;23947;51.894;4.622;2023-03-04T06:32:44;5.40;1.40
38131;DHT22;23947;51.894;4.622;2023-03-04T06:35:12;5.40;1.40
38131;DHT22;23947;51.894;4.622;2023-03-04T06:37:38;5.40;1.40
38131;DHT22;23947;51.894;4.622;2023-03-04T06:40:04;5.30;1.40
38131;DHT22;23947;51.894;4.622;2023-03-04T06:42:30;5.30;1.40
38131;DHT22;23947;51.894;4.622;2023-03-04T06:44:56;5.30;1.40
38131;DHT22;23947;51.894;4.622;2023-03-04T06:47:21;5.30;1.40
38131;DHT22;23947;51.894;4.622;2023-03-04T06:49:47;5.30;1.40
38131;DHT22;23947;51.894;4.622;2023-03-04T06:52:13;5.30;1.40
38131;DHT22;23947;51.894;4.622;2023-03-04T06:54:39;5.30;1.40
38131;DHT22;23947;51.894;4.622;2023-03-04T06:57:05;5.40;1.40
38131;DHT22;23947;51.894;4.622;2023-03-04T06:59:30;5.40;1.40
38131;DHT22;23947;51.894;4.622;2023-03-04T07:01:56;5.40;1.40
38131;DHT22;23947;51.894;4.622;2023-03-04T07:04:22;5.40;1.40
38131;DHT22;23947;51.894;4.622;2023-03-04T07:06:48;5.40;1.40
38131;DHT22;23947;51.894;4.622;2023-03-04T07:09:14;5.40;1.40
38131;DHT22;23947;51.894;4.622;2023-03-04T07:11:40;5.40;1.40
38131;DHT22;23947;51.894;4.622;2023-03-04T07:14:06;5.40;1.40
38131;DHT22;23947;51.894;4.622;2023-03-04T07:16:31;5.40;1.40
38131;DHT22;23947;51.894;4.622;2023-03-04T07:18:57;5.50;1.40
38131;DHT22;23947;51.894;4.622;2023-03-04T07:21:23;5.50;1.40
38131;DHT22;23947;51.894;4.622;2023-03-04T07:23:49;5.50;1.40
38131;DHT22;23947;51.894;4.622;2023-03-04T07:26:15;5.50;1.40
38131;DHT22;23947;51.894;4.622;2023-03-04T07:28:41;5.50;1.40
38131;DHT22;23947;51.894;4.622;2023-03-04T07:31:09;5.50;1.40
38131;DHT22;23947;51.894;4.622;2023-03-04T07:33:35;5.60;1.40
38131;DHT22;23947;51.894;4.622;2023-03-04T07:36:01;5.60;1.40
38131;DHT22;23947;51.894;4.622;2023-03-04T07:38:26;5.60;1.40
38131;DHT22;23947;51.894;4.622;2023-03-04T07:40:56;5.60;1.40
38131;DHT22;23947;51.894;4.622;2023-03-04T07:43:22;5.70;1.40
38131;DHT22;23947;51.894;4.622;2023-03-04T07:45:48;5.70;1.40
38131;DHT22;23947;51.894;4.622;2023-03-04T07:48:13;5.70;1.40
38131;DHT22;23947;51.894;4.622;2023-03-04T07:50:39;5.70;1.40
38131;DHT22;23947;51.894;4.622;2023-03-04T07:53:04;5.80;1.40
38131;DHT22;23947;51.894;4.622;2023-03-04T07:55:30;5.80;1.40
38131;DHT22;23947;51.894;4.622;2023-03-04T07:57:56;5.80;1.40
38131;DHT22;23947;51.894;4.622;2023-03-04T08:00:22;5.70;1.40
38131;DHT22;23947;51.894;4.622;2023-03-04T08:02:48;5.70;1.40
38131;DHT22;23947;51.894;4.622;2023-03-04T08:05:13;5.70;1.40
38131;DHT22;23947;51.894;4.622;2023-03-04T08:07:39;5.70;1.40
38131;DHT22;23947;51.894;4.622;2023-03-04T08:10:06;5.80;1.40
38131;DHT22;23947;51.894;4.622;2023-03-04T08:12:33;5.80;1.40
38131;DHT22;23947;51.894;4.622;2023-03-04T08:14:59;5.80;1.40
38131;DHT22;23947;51.894;4.622;2023-03-04T08:17:25;5.80;1.40
38131;DHT22;23947;51.894;4.622;2023-03-04T08:19:50;5.80;1.40
38131;DHT22;23947;51.894;4.622;2023-03-04T08:22:16;5.80;1.40
38131;DHT22;23947;51.894;4.622;2023-03-04T08:24:42;5.80;1.40
38131;DHT22;23947;51.894;4.622;2023-03-04T08:27:08;5.80;1.40
38131;DHT22;23947;51.894;4.622;2023-03-04T08:29:33;5.90;1.40
38131;DHT22;23947;51.894;4.622;2023-03-04T08:31:59;5.90;1.40
38131;DHT22;23947;51.894;4.622;2023-03-04T08:34:26;6.00;1.40
38131;DHT22;23947;51.894;4.622;2023-03-04T08:36:53;6.00;1.40
38131;DHT22;23947;51.894;4.622;2023-03-04T08:39:19;6.00;1.40
38131;DHT22;23947;51.894;4.622;2023-03-04T08:41:46;6.10;1.40
38131;DHT22;23947;51.894;4.622;2023-03-04T08:44:12;6.10;1.40
38131;DHT22;23947;51.894;4.622;2023-03-04T08:46:40;6.10;1.40
38131;DHT22;23947;51.894;4.622;2023-03-04T08:49:06;6.20;1.40
38131;DHT22;23947;51.894;4.622;2023-03-04T08:51:32;6.30;1.40
38131;DHT22;23947;51.894;4.622;2023-03-04T08:54:00;6.40;1.40
38131;DHT22;23947;51.894;4.622;2023-03-04T08:56:26;6.40;1.40
38131;DHT22;23947;51.894;4.622;2023-03-04T08:58:55;6.40;1.40
38131;DHT22;23947;51.894;4.622;2023-03-04T09:01:20;6.40;1.40
38131;DHT22;23947;51.894;4.622;2023-03-04T09:03:46;6.50;1.40
38131;DHT22;23947;51.894;4.622;2023-03-04T09:06:16;6.50;1.40
38131;DHT22;23947;51.894;4.622;2023-03-04T09:08:43;6.60;1.40
38131;DHT22;23947;51.894;4.622;2023-03-04T09:11:09;6.70;1.40
38131;DHT22;23947;51.894;4.622;2023-03-04T09:13:35;6.80;1.40
38131;DHT22;23947;51.894;4.622;2023-03-04T09:16:01;6.80;1.40
38131;DHT22;23947;51.894;4.622;2023-03-04T09:18:27;6.80;1.40
38131;DHT22;23947;51.894;4.622;2023-03-04T09:20:53;6.70;1.40
38131;DHT22;23947;51.894;4.622;2023-03-04T09:23:19;6.80;1.40
38131;DHT22;23947;51.894;4.622;2023-03-04T09:25:46;6.80;1.40
38131;DHT22;23947;51.894;4.622;2023-03-04T09:28:12;6.70;1.40
38131;DHT22;23947;51.894;4.622;2023-03-04T09:30:38;6.70;1.40
38131;DHT22;23947;51.894;4.622;2023-03-04T09:33:04;6.70;1.40
38131;DHT22;23947;51.894;4.622;2023-03-04T09:35:30;6.60;1.40
38131;DHT22;23947;51.894;4.622;2023-03-04T09:37:56;6.60;1.40
38131;DHT22;23947;51.894;4.622;2023-03-04T09:40:29;6.60;1.40
38131;DHT22;23947;51.894;4.622;2023-03-04T09:42:59;6.60;1.40
38131;DHT22;23947;51.894;4.622;2023-03-04T09:45:42;6.60;1.40
38131;DHT22;23947;51.894;4.622;2023-03-04T09:48:19;6.70;1.40
38131;DHT22;23947;51.894;4.622;2023-03-04T09:53:39;6.80;1.40
38131;DHT22;23947;51.894;4.622;2023-03-04T09:56:11;6.90;1.40
38131;DHT22;23947;51.894;4.622;2023-03-04T09:58:43;6.90;1.40
38131;DHT22;23947;51.894;4.622;2023-03-04T10:01:29;6.90;1.40
38131;DHT22;23947;51.894;4.622;2023-03-04T10:06:25;6.90;1.40
38131;DHT22;23947;51.894;4.622;2023-03-04T10:11:27;7.00;1.40
38131;DHT22;23947;51.894;4.622;2023-03-04T10:19:58;7.00;1.40
38131;DHT22;23947;51.894;4.622;2023-03-04T10:22:40;6.90;1.40
38131;DHT22;23947;51.894;4.622;2023-03-04T10:25:19;6.80;1.40
38131;DHT22;23947;51.894;4.622;2023-03-04T10:28:04;6.80;1.40
38131;DHT22;23947;51.894;4.622;2023-03-04T10:30:55;7.00;1.40
38131;DHT22;23947;51.894;4.622;2023-03-04T10:33:26;7.00;1.40
38131;DHT22;23947;51.894;4.622;2023-03-04T10:38:36;7.10;1.40
38131;DHT22;23947;51.894;4.622;2023-03-04T10:41:17;7.20;1.40
38131;DHT22;23947;51.894;4.622;2023-03-04T10:43:49;7.10;1.40
38131;DHT22;23947;51.894;4.622;2023-03-04T10:46:15;7.10;1.40
38131;DHT22;23947;51.894;4.622;2023-03-04T10:48:42;7.00;1.40
38131;DHT22;23947;51.894;4.622;2023-03-04T10:51:29;7.00;1.40
38131;DHT22;23947;51.894;4.622;2023-03-04T10:54:08;7.00;1.40
38131;DHT22;23947;51.894;4.622;2023-03-04T10:56:38;7.10;1.40
38131;DHT22;23947;51.894;4.622;2023-03-04T11:01:53;7.30;1.40
38131;DHT22;23947;51.894;4.622;2023-03-04T11:04:22;7.30;1.40
38131;DHT22;23947;51.894;4.622;2023-03-04T11:06:50;7.40;1.40
38131;DHT22;23947;51.894;4.622;2023-03-04T11:09:25;7.40;1.40
38131;DHT22;23947;51.894;4.622;2023-03-04T11:11:53;7.50;1.40
38131;DHT22;23947;51.894;4.622;2023-03-04T11:17:14;7.80;1.40
38131;DHT22;23947;51.894;4.622;2023-03-04T11:19:44;7.90;1.40
38131;DHT22;23947;51.894;4.622;2023-03-04T11:22:17;7.90;1.40
38131;DHT22;23947;51.894;4.622;2023-03-04T11:24:49;7.90;1.40
38131;DHT22;23947;51.894;4.622;2023-03-04T11:27:39;7.90;1.40
38131;DHT22;23947;51.894;4.622;2023-03-04T11:32:53;8.00;1.40
38131;DHT22;23947;51.894;4.622;2023-03-04T11:35:23;7.90;1.40
38131;DHT22;23947;51.894;4.622;2023-03-04T11:40:37;7.80;1.40
38131;DHT22;23947;51.894;4.622;2023-03-04T11:43:18;7.80;1.40
38131;DHT22;23947;51.894;4.622;2023-03-04T12:06:01;8.40;1.40
38131;DHT22;23947;51.894;4.622;2023-03-04T12:08:54;8.60;1.40
38131;DHT22;23947;51.894;4.622;2023-03-04T12:11:51;8.60;1.40
38131;DHT22;23947;51.894;4.622;2023-03-04T12:14:43;8.60;1.40
38131;DHT22;23947;51.894;4.622;2023-03-04T12:20:29;8.30;1.40
38131;DHT22;23947;51.894;4.622;2023-03-04T12:23:15;8.00;1.40
38131;DHT22;23947;51.894;4.622;2023-03-04T12:26:06;7.80;1.40
38131;DHT22;23947;51.894;4.622;2023-03-04T12:39:31;7.80;1.40
38131;DHT22;23947;51.894;4.622;2023-03-04T12:42:29;7.90;1.40
38131;DHT22;23947;51.894;4.622;2023-03-04T12:50:35;9.40;1.40
38131;DHT22;23947;51.894;4.622;2023-03-04T12:55:49;10.50;1.40
38131;DHT22;23947;51.894;4.622;2023-03-04T12:58:27;10.70;1.40
38131;DHT22;23947;51.894;4.622;2023-03-04T13:06:30;10.80;1.40
38131;DHT22;23947;51.894;4.622;2023-03-04T13:11:54;10.10;1.40
38131;DHT22;23947;51.894;4.622;2023-03-04T13:14:28;9.80;1.40
38131;DHT22;23947;51.894;4.622;2023-03-04T13:17:36;9.40;1.40
38131;DHT22;23947;51.894;4.622;2023-03-04T13:20:32;9.30;1.40
38131;DHT22;23947;51.894;4.622;2023-03-04T13:25:42;9.30;1.40
38131;DHT22;23947;51.894;4.622;2023-03-04T13:41:22;8.60;1.40
38131;DHT22;23947;51.894;4.622;2023-03-04T13:51:41;8.20;1.40
38131;DHT22;23947;51.894;4.622;2023-03-04T13:54:32;8.10;1.40
38131;DHT22;23947;51.894;4.622;2023-03-04T13:57:18;8.10;1.40
38131;DHT22;23947;51.894;4.622;2023-03-04T13:59:48;8.10;1.40
38131;DHT22;23947;51.894;4.622;2023-03-04T14:02:20;8.10;1.40
38131;DHT22;23947;51.894;4.622;2023-03-04T14:04:57;8.10;1.40
38131;DHT22;23947;51.894;4.622;2023-03-04T14:07:34;8.10;1.40
38131;DHT22;23947;51.894;4.622;2023-03-04T14:10:02;8.10;1.40
38131;DHT22;23947;51.894;4.622;2023-03-04T14:12:31;8.10;1.40
38131;DHT22;23947;51.894;4.622;2023-03-04T14:17:39;8.10;1.40
38131;DHT22;23947;51.894;4.622;2023-03-04T14:20:26;8.20;1.40
38131;DHT22;23947;51.894;4.622;2023-03-04T14:22:54;8.10;1.40
38131;DHT22;23947;51.894;4.622;2023-03-04T14:25:32;8.30;1.40
38131;DHT22;23947;51.894;4.622;2023-03-04T14:28:18;8.50;1.40
38131;DHT22;23947;51.894;4.622;2023-03-04T14:30:52;8.60;1.40
38131;DHT22;23947;51.894;4.622;2023-03-04T14:33:21;8.80;1.40
38131;DHT22;23947;51.894;4.622;2023-03-04T14:35:49;8.80;1.40
38131;DHT22;23947;51.894;4.622;2023-03-04T14:40:54;8.70;1.40
38131;DHT22;23947;51.894;4.622;2023-03-04T14:43:23;8.80;1.40
38131;DHT22;23947;51.894;4.622;2023-03-04T14:45:51;8.70;1.40
38131;DHT22;23947;51.894;4.622;2023-03-04T14:48:35;8.50;1.40
38131;DHT22;23947;51.894;4.622;2023-03-04T14:51:02;8.40;1.40
38131;DHT22;23947;51.894;4.622;2023-03-04T14:53:32;8.20;1.40
38131;DHT22;23947;51.894;4.622;2023-03-04T14:56:05;8.10;1.40
38131;DHT22;23947;51.894;4.622;2023-03-04T14:58:34;7.90;1.40
38131;DHT22;23947;51.894;4.622;2023-03-04T15:03:33;7.90;1.40
38131;DHT22;23947;51.894;4.622;2023-03-04T15:06:07;7.70;1.40
38131;DHT22;23947;51.894;4.622;2023-03-04T15:08:39;7.60;1.40
38131;DHT22;23947;51.894;4.622;2023-03-04T15:11:07;7.50;1.40
38131;DHT22;23947;51.894;4.622;2023-03-04T15:13:45;7.50;1.40
38131;DHT22;23947;51.894;4.622;2023-03-04T15:16:12;7.40;1.40
38131;DHT22;23947;51.894;4.622;2023-03-04T15:18:52;7.60;1.40
38131;DHT22;23947;51.894;4.622;2023-03-04T15:23:46;7.50;1.40
38131;DHT22;23947;51.894;4.622;2023-03-04T15:26:12;7.40;1.40
38131;DHT22;23947;51.894;4.622;2023-03-04T15:28:39;7.40;1.40
38131;DHT22;23947;51.894;4.622;2023-03-04T15:31:18;7.40;1.40
38131;DHT22;23947;51.894;4.622;2023-03-04T15:33:44;7.50;1.40
38131;DHT22;23947;51.894;4.622;2023-03-04T15:36:14;7.50;1.40
38131;DHT22;23947;51.894;4.622;2023-03-04T15:38:41;7.50;1.40
38131;DHT22;23947;51.894;4.622;2023-03-04T15:41:10;7.50;1.40
38131;DHT22;23947;51.894;4.622;2023-03-04T15:43:37;7.50;1.40
38131;DHT22;23947;51.894;4.622;2023-03-04T15:46:03;7.50;1.40
38131;DHT22;23947;51.894;4.622;2023-03-04T15:48:28;7.40;1.40
38131;DHT22;23947;51.894;4.622;2023-03-04T15:51:00;7.40;1.40
38131;DHT22;23947;51.894;4.622;2023-03-04T15:53:31;7.40;1.40
38131;DHT22;23947;51.894;4.622;2023-03-04T15:55:58;7.40;1.40
38131;DHT22;23947;51.894;4.622;2023-03-04T15:58:25;7.40;1.40
38131;DHT22;23947;51.894;4.622;2023-03-04T16:00:51;7.30;1.40
38131;DHT22;23947;51.894;4.622;2023-03-04T16:03:20;7.30;1.40
38131;DHT22;23947;51.894;4.622;2023-03-04T16:05:49;7.30;1.40
38131;DHT22;23947;51.894;4.622;2023-03-04T16:08:17;7.20;1.40
38131;DHT22;23947;51.894;4.622;2023-03-04T16:10:43;7.20;1.40
38131;DHT22;23947;51.894;4.622;2023-03-04T16:13:18;7.20;1.40
38131;DHT22;23947;51.894;4.622;2023-03-04T16:15:44;7.10;1.40
38131;DHT22;23947;51.894;4.622;2023-03-04T16:18:12;7.10;1.40
38131;DHT22;23947;51.894;4.622;2023-03-04T16:20:38;7.00;1.40
38131;DHT22;23947;51.894;4.622;2023-03-04T16:23:08;7.00;1.40
38131;DHT22;23947;51.894;4.622;2023-03-04T16:25:38;7.00;1.40
38131;DHT22;23947;51.894;4.622;2023-03-04T16:28:04;7.00;1.40
38131;DHT22;23947;51.894;4.622;2023-03-04T16:30:31;7.10;1.40
38131;DHT22;23947;51.894;4.622;2023-03-04T16:32:56;7.10;1.40
38131;DHT22;23947;51.894;4.622;2023-03-04T16:35:22;7.20;1.40
38131;DHT22;23947;51.894;4.622;2023-03-04T16:37:52;7.10;1.40
38131;DHT22;23947;51.894;4.622;2023-03-04T16:40:22;7.00;1.40
38131;DHT22;23947;51.894;4.622;2023-03-04T16:42:49;7.00;1.40
38131;DHT22;23947;51.894;4.622;2023-03-04T16:45:24;7.00;1.40
38131;DHT22;23947;51.894;4.622;2023-03-04T16:47:51;6.90;1.40
38131;DHT22;23947;51.894;4.622;2023-03-04T16:50:20;6.90;1.40
38131;DHT22;23947;51.894;4.622;2023-03-04T16:52:49;6.80;1.40
38131;DHT22;23947;51.894;4.622;2023-03-04T16:55:24;6.80;1.40
38131;DHT22;23947;51.894;4.622;2023-03-04T16:57:51;6.70;1.40
38131;DHT22;23947;51.894;4.622;2023-03-04T17:00:18;6.70;1.40
38131;DHT22;23947;51.894;4.622;2023-03-04T17:02:46;6.70;1.40
38131;DHT22;23947;51.894;4.622;2023-03-04T17:05:19;6.70;1.40
38131;DHT22;23947;51.894;4.622;2023-03-04T17:07:45;6.60;1.40
38131;DHT22;23947;51.894;4.622;2023-03-04T17:10:12;6.60;1.40
38131;DHT22;23947;51.894;4.622;2023-03-04T17:12:38;6.70;1.40
38131;DHT22;23947;51.894;4.622;2023-03-04T17:15:04;6.60;1.40
38131;DHT22;23947;51.894;4.622;2023-03-04T17:17:30;6.50;1.40
38131;DHT22;23947;51.894;4.622;2023-03-04T17:19:56;6.60;1.40
38131;DHT22;23947;51.894;4.622;2023-03-04T17:22:22;6.60;1.40
38131;DHT22;23947;51.894;4.622;2023-03-04T17:24:48;6.60;1.40
38131;DHT22;23947;51.894;4.622;2023-03-04T17:27:14;6.60;1.40
38131;DHT22;23947;51.894;4.622;2023-03-04T17:29:40;6.50;1.40
38131;DHT22;23947;51.894;4.622;2023-03-04T17:32:05;6.50;1.40
38131;DHT22;23947;51.894;4.622;2023-03-04T17:34:31;6.50;1.40
38131;DHT22;23947;51.894;4.622;2023-03-04T17:36:57;6.40;1.40
38131;DHT22;23947;51.894;4.622;2023-03-04T17:39:23;6.40;1.40
38131;DHT22;23947;51.894;4.622;2023-03-04T17:41:49;6.50;1.40
38131;DHT22;23947;51.894;4.622;2023-03-04T17:44:15;6.40;1.40
38131;DHT22;23947;51.894;4.622;2023-03-04T17:46:41;6.40;1.40
38131;DHT22;23947;51.894;4.622;2023-03-04T17:49:09;6.40;1.40
38131;DHT22;23947;51.894;4.622;2023-03-04T17:51:37;6.40;1.40
38131;DHT22;23947;51.894;4.622;2023-03-04T17:54:04;6.30;1.40
38131;DHT22;23947;51.894;4.622;2023-03-04T17:56:31;6.40;1.40
38131;DHT22;23947;51.894;4.622;2023-03-04T17:58:59;6.30;1.40
38131;DHT22;23947;51.894;4.622;2023-03-04T18:01:25;6.30;1.40
38131;DHT22;23947;51.894;4.622;2023-03-04T18:03:52;6.30;1.40